Time;durP1;ratioP1;P1;durP2;ratioP2;P2;SDS_P1;SDS_P2;PMS_P1;PMS_P2;Temp;Humidity;BMP_temperature;BMP_pressure;BME280_temperature;BME280_humidity;BME280_pressure;Samples;Min_cycle;Max_cycle;Signal;HPM_P1;HPM_P2
2023/04/04 17:11:35;;;;;;;34.70;10.70;;;;;;;44.10;32.24;100514.28;6121184;23;21062;-86
2023/04/04 17:14:03;;;;;;;36.77;11.23;;;;;;;44.14;32.10;100511.66;6104899;23;20401;-87
2023/04/04 17:16:29;;;;;;;37.17;11.70;;;;;;;44.06;31.87;100501.69;6129477;23;20385;-87
2023/04/04 17:18:57;;;;;;;27.93;10.37;;;;;;;44.00;32.00;100514.03;6128282;23;20224;-82
2023/04/04 17:21:25;;;;;;;38.97;11.60;;;;;;;44.09;32.54;100531.06;6152806;23;20374;-83
2023/04/04 17:23:51;;;;;;;42.07;11.50;;;;;;;44.07;32.58;100536.84;6128557;23;20389;-83
2023/04/04 17:26:23;;;;;;;32.47;11.70;;;;;;;43.92;32.83;100527.56;6154931;23;20361;-83
2023/04/04 17:28:49;;;;;;;31.83;11.33;;;;;;;43.84;32.63;100541.44;6125798;23;20413;-83
2023/04/04 17:31:16;;;;;;;39.13;13.67;;;;;;;43.83;32.80;100535.19;6154446;23;20475;-83
2023/04/04 17:33:42;;;;;;;40.33;11.33;;;;;;;43.82;32.15;100530.84;6128544;23;20471;-83
2023/04/04 17:36:10;;;;;;;34.20;11.60;;;;;;;43.94;32.28;100540.84;6128585;23;20777;-83
2023/04/04 17:38:40;;;;;;;28.10;12.80;;;;;;;43.88;32.25;100551.28;6127108;23;20867;-83
2023/04/04 17:41:07;;;;;;;32.47;10.10;;;;;;;43.79;31.99;100547.94;6128316;23;20381;-83
2023/04/04 17:43:33;;;;;;;32.80;12.63;;;;;;;43.77;32.51;100554.88;6127674;23;20417;-83
2023/04/04 17:46:05;;;;;;;26.77;11.47;;;;;;;43.69;32.72;100551.97;6127953;23;20388;-83
2023/04/04 17:48:34;;;;;;;29.83;10.47;;;;;;;43.43;32.41;100552.53;6128466;23;20396;-82
2023/04/04 17:51:04;;;;;;;22.30;10.07;;;;;;;43.59;32.41;100565.41;6128448;23;20902;-84
2023/04/04 17:53:30;;;;;;;36.83;13.03;;;;;;;43.54;32.94;100573.84;6127811;23;20467;-83
2023/04/04 17:55:57;;;;;;;29.17;9.90;;;;;;;43.36;33.25;100582.34;6128478;23;20443;-83
2023/04/04 17:58:24;;;;;;;35.20;12.13;;;;;;;43.41;33.38;100581.34;6128008;23;20476;-84
2023/04/04 18:00:54;;;;;;;45.83;13.80;;;;;;;43.26;33.34;100591.03;6128373;23;20385;-82
2023/04/04 18:03:21;;;;;;;39.03;12.13;;;;;;;43.06;33.47;100576.47;6128496;23;20444;-82
2023/04/04 18:05:48;;;;;;;26.60;10.20;;;;;;;43.16;33.30;100589.63;6154370;23;20416;-83
2023/04/04 18:08:14;;;;;;;35.20;13.60;;;;;;;43.10;33.83;100587.50;6129439;23;20417;-84
2023/04/04 18:10:40;;;;;;;36.47;14.23;;;;;;;42.99;33.74;100589.16;6129905;23;20463;-82
2023/04/04 18:13:07;;;;;;;27.10;9.80;;;;;;;43.15;33.23;100582.56;6109968;23;20934;-82
2023/04/04 18:15:34;;;;;;;32.90;11.90;;;;;;;43.04;33.42;100586.97;6100421;23;20245;-81
2023/04/04 18:18:00;;;;;;;41.83;11.87;;;;;;;42.97;33.03;100581.28;6100615;23;20381;-81
2023/04/04 18:20:27;;;;;;;24.53;11.10;;;;;;;43.08;33.21;100587.84;6100625;23;20894;-82
2023/04/04 18:22:52;;;;;;;29.67;11.23;;;;;;;42.80;33.74;100587.84;6099812;23;20824;-81
2023/04/04 18:25:18;;;;;;;29.33;10.50;;;;;;;42.89;33.59;100596.66;6100636;23;20410;-81
2023/04/04 18:27:45;;;;;;;32.07;10.53;;;;;;;42.86;33.53;100594.63;6100576;23;20238;-81
2023/04/04 18:30:11;;;;;;;31.83;9.03;;;;;;;42.85;33.46;100594.97;6100322;23;20426;-81
2023/04/04 18:32:37;;;;;;;35.57;10.47;;;;;;;42.98;33.11;100598.44;6100537;23;20433;-84
2023/04/04 18:35:03;;;;;;;25.30;11.20;;;;;;;42.85;33.46;100594.97;6100390;23;21216;-81
2023/04/04 18:37:29;;;;;;;33.47;11.73;;;;;;;42.76;33.89;100594.31;6099976;23;20957;-82
2023/04/04 18:39:55;;;;;;;28.17;11.40;;;;;;;42.80;33.99;100603.41;6100452;23;20378;-81
2023/04/04 18:42:23;;;;;;;39.70;12.23;;;;;;;42.78;34.14;100611.13;6099711;23;20444;-81
2023/04/04 18:44:52;;;;;;;27.73;13.03;;;;;;;42.76;33.96;100602.50;6127033;23;20351;-81
2023/04/04 18:47:20;;;;;;;50.03;12.20;;;;;;;42.90;34.17;100608.34;6100441;23;20783;-81
2023/04/04 18:49:46;;;;;;;26.83;13.03;;;;;;;42.96;34.11;100623.34;6099555;23;20393;-81
2023/04/04 18:52:12;;;;;;;27.20;11.13;;;;;;;42.98;33.77;100633.94;6100452;23;20397;-81
2023/04/04 18:54:38;;;;;;;37.90;11.77;;;;;;;42.87;33.82;100625.44;6100539;23;20389;-81
2023/04/04 18:57:05;;;;;;;30.83;12.57;;;;;;;42.93;33.84;100649.41;6100646;23;20390;-83
2023/04/04 18:59:31;;;;;;;34.77;12.40;;;;;;;42.80;34.02;100652.50;6100329;23;20385;-83
2023/04/04 19:01:59;;;;;;;37.23;15.40;;;;;;;42.77;33.95;100636.81;6100751;23;20382;-83
2023/04/04 19:04:28;;;;;;;32.00;11.03;;;;;;;42.52;34.35;100650.47;6100019;23;20473;-82
2023/04/04 19:06:54;;;;;;;35.13;10.77;;;;;;;42.65;33.96;100663.00;6097895;23;20392;-84
2023/04/04 19:09:21;;;;;;;28.77;10.83;;;;;;;42.60;33.70;100676.06;6098759;23;20385;-83
2023/04/04 19:11:48;;;;;;;30.67;10.87;;;;;;;42.76;33.54;100689.81;6128228;23;20433;-83
2023/04/04 19:14:14;;;;;;;31.27;10.40;;;;;;;42.67;33.40;100687.22;6128815;23;20444;-83
2023/04/04 19:16:40;;;;;;;33.70;11.33;;;;;;;42.74;33.76;100687.44;6128305;23;20485;-84
2023/04/04 19:19:06;;;;;;;26.47;10.60;;;;;;;42.76;33.54;100687.88;6128920;23;20390;-83
2023/04/04 19:21:32;;;;;;;35.13;11.43;;;;;;;42.87;33.58;100699.09;6129458;23;20385;-83
2023/04/04 19:23:58;;;;;;;24.30;9.27;;;;;;;42.86;33.50;100703.78;6129462;23;20405;-83
2023/04/04 19:26:24;;;;;;;28.90;12.33;;;;;;;42.92;33.43;100723.44;6127225;23;20385;-83
2023/04/04 19:28:50;;;;;;;25.93;14.00;;;;;;;42.94;33.61;100721.13;6128157;23;20389;-80
2023/04/04 19:31:20;;;;;;;36.00;14.23;;;;;;;42.97;33.17;100723.19;6129102;23;20913;-80
2023/04/04 19:33:53;;;;;;;37.93;10.40;;;;;;;42.99;32.90;100718.22;6129027;23;20401;-81
2023/04/04 19:36:19;;;;;;;30.83;9.23;;;;;;;42.93;33.12;100725.81;6129025;23;20404;-80
2023/04/04 19:38:49;;;;;;;46.53;12.43;;;;;;;42.96;33.07;100728.97;6129178;23;20385;-81
2023/04/04 19:41:19;;;;;;;37.77;11.87;;;;;;;42.98;33.08;100741.19;6128785;23;20415;-81
2023/04/04 19:43:46;;;;;;;38.47;10.57;;;;;;;43.01;33.04;100732.28;6129563;23;20392;-82
2023/04/04 19:46:15;;;;;;;35.23;12.33;;;;;;;42.95;32.74;100728.19;6129149;23;20417;-81
2023/04/04 19:48:47;;;;;;;33.73;12.03;;;;;;;43.03;32.94;100740.94;6129149;23;20444;-82
2023/04/04 19:51:16;;;;;;;27.70;12.47;;;;;;;43.06;32.77;100755.81;6129037;23;20452;-81
2023/04/04 19:53:49;;;;;;;30.67;11.97;;;;;;;43.01;32.85;100765.03;6128960;23;20421;-82
2023/04/04 19:56:16;;;;;;;43.93;12.60;;;;;;;43.04;32.77;100771.75;6128973;23;20737;-82
2023/04/04 19:58:42;;;;;;;35.67;12.17;;;;;;;42.94;32.87;100753.88;6128710;23;20393;-82
2023/04/04 20:01:10;;;;;;;34.57;15.67;;;;;;;43.00;33.11;100762.66;6129072;23;20381;-83
2023/04/04 20:03:38;;;;;;;28.67;10.60;;;;;;;43.00;33.30;100755.28;6129072;23;20447;-83
2023/04/04 20:06:27;;;;;;;40.90;13.70;;;;;;;42.98;33.32;100767.66;6129024;23;20889;-81
2023/04/04 20:09:01;;;;;;;26.00;10.37;;;;;;;42.97;33.41;100763.31;6128776;23;20857;-81
2023/04/04 20:11:35;;;;;;;31.90;10.90;;;;;;;43.02;33.25;100776.75;6128870;23;20446;-80
2023/04/04 20:14:08;;;;;;;24.60;10.57;;;;;;;42.89;33.10;100774.00;6123738;23;20420;-80
2023/04/04 20:16:35;;;;;;;33.33;12.23;;;;;;;42.79;33.29;100771.78;6124145;23;20394;-81
2023/04/04 20:19:05;;;;;;;36.50;13.93;;;;;;;43.00;32.87;100777.09;6124250;23;20990;-82
2023/04/04 20:21:32;;;;;;;36.07;11.53;;;;;;;43.03;33.16;100770.16;6126079;23;20445;-81
2023/04/04 20:24:02;;;;;;;34.10;12.60;;;;;;;43.02;32.88;100771.28;6124046;23;20437;-81
2023/04/04 20:26:34;;;;;;;38.00;11.10;;;;;;;42.99;33.27;100778.25;6123986;23;20397;-83
2023/04/04 20:29:03;;;;;;;36.97;12.73;;;;;;;43.00;32.90;100779.03;6125738;23;20419;-83
2023/04/04 20:31:34;;;;;;;35.47;11.83;;;;;;;42.89;33.11;100790.38;6123838;23;20779;-83
2023/04/04 20:34:00;;;;;;;29.43;9.57;;;;;;;42.83;32.79;100772.66;6123546;23;20422;-81
2023/04/04 20:36:31;;;;;;;38.10;10.70;;;;;;;42.85;33.01;100786.78;6124099;23;20393;-83
2023/04/04 20:38:58;;;;;;;27.43;10.10;;;;;;;42.90;33.15;100786.50;6123832;23;20525;-83
2023/04/04 20:41:25;;;;;;;32.97;11.80;;;;;;;42.82;33.24;100795.63;6123946;23;20738;-83
2023/04/04 20:43:56;;;;;;;32.13;11.10;;;;;;;42.83;33.00;100797.22;6123938;23;20398;-81
2023/04/04 20:46:27;;;;;;;35.80;10.30;;;;;;;42.84;33.15;100801.53;6117994;23;20426;-81
2023/04/04 20:48:55;;;;;;;33.10;13.87;;;;;;;42.86;33.47;100809.38;6123901;23;20720;-81
2023/04/04 20:51:29;;;;;;;25.43;9.73;;;;;;;42.89;33.38;100812.22;6123790;23;20774;-81
2023/04/04 20:53:58;;;;;;;46.03;11.63;;;;;;;42.91;33.27;100831.00;6123948;23;20388;-82
2023/04/04 20:56:40;;;;;;;40.03;13.53;;;;;;;42.85;33.66;100824.19;6124207;23;20469;-83
2023/04/04 20:59:30;;;;;;;35.90;11.20;;;;;;;42.96;33.09;100843.59;6123963;23;20389;-82
2023/04/04 21:02:08;;;;;;;31.77;12.00;;;;;;;42.92;33.23;100841.56;6123993;23;20394;-81
2023/04/04 21:04:35;;;;;;;32.27;9.97;;;;;;;43.00;33.21;100848.06;6123854;23;20394;-81
2023/04/04 21:07:01;;;;;;;34.90;13.33;;;;;;;43.03;33.18;100857.50;6125649;23;20789;-82
2023/04/04 21:09:28;;;;;;;28.17;9.60;;;;;;;42.85;33.21;100854.19;6123171;23;20390;-83
2023/04/04 21:11:54;;;;;;;33.67;12.10;;;;;;;43.00;33.11;100855.47;6126680;23;20532;-82
2023/04/04 21:14:28;;;;;;;36.77;10.97;;;;;;;42.96;33.22;100868.16;6126958;23;20440;-83
2023/04/04 21:16:54;;;;;;;26.77;9.90;;;;;;;42.84;33.24;100864.28;6128044;23;20806;-83
2023/04/04 21:19:20;;;;;;;34.83;12.47;;;;;;;42.95;33.00;100866.56;6127948;23;20417;-83
2023/04/04 21:21:46;;;;;;;40.60;14.03;;;;;;;42.99;32.95;100870.25;6128582;23;20493;-82
2023/04/04 21:24:13;;;;;;;36.33;12.60;;;;;;;42.94;33.04;100876.69;6127852;23;20153;-83
2023/04/04 21:26:40;;;;;;;35.40;11.07;;;;;;;43.00;32.96;100885.47;6128258;23;20447;-83
2023/04/04 21:29:24;;;;;;;26.93;10.13;;;;;;;42.95;33.34;100882.94;6127904;23;20409;-83
2023/04/04 21:31:52;;;;;;;23.43;9.37;;;;;;;42.93;33.02;100877.84;6128487;23;20431;-83
2023/04/04 21:34:24;;;;;;;31.57;9.10;;;;;;;42.99;32.95;100881.97;6128184;23;20385;-83
2023/04/04 21:36:55;;;;;;;39.43;10.67;;;;;;;42.98;33.22;100885.81;6128723;23;20803;-83
2023/04/04 21:39:22;;;;;;;32.60;10.13;;;;;;;43.07;32.64;100880.25;6130657;23;20845;-83
2023/04/04 21:41:55;;;;;;;38.07;10.07;;;;;;;43.01;33.01;100881.59;6130385;23;20694;-83
2023/04/04 21:44:22;;;;;;;27.07;11.50;;;;;;;42.97;33.12;100861.56;6130313;23;20385;-83
2023/04/04 21:46:48;;;;;;;35.30;9.40;;;;;;;42.89;33.38;100866.78;6130388;23;20443;-83
2023/04/04 21:49:14;;;;;;;29.40;11.30;;;;;;;42.95;33.45;100872.81;6130392;23;20475;-83
2023/04/04 21:51:41;;;;;;;32.73;11.30;;;;;;;42.84;33.50;100882.59;6130333;23;20483;-83
2023/04/04 21:54:08;;;;;;;35.13;10.13;;;;;;;42.92;32.80;100881.69;6130576;23;20849;-83
2023/04/04 21:56:34;;;;;;;29.50;9.93;;;;;;;42.97;32.97;100876.03;6130231;23;20465;-83
2023/04/04 21:59:03;;;;;;;22.63;9.90;;;;;;;42.98;32.84;100868.63;6130299;23;20389;-81
2023/04/04 22:01:30;;;;;;;28.80;10.63;;;;;;;43.00;32.47;100869.91;6130159;23;20387;-83
2023/04/04 22:03:57;;;;;;;34.47;11.37;;;;;;;42.87;32.61;100877.25;6130495;23;20412;-83
2023/04/04 22:06:25;;;;;;;27.93;10.17;;;;;;;42.90;32.65;100881.22;6130288;23;20817;-83
2023/04/04 22:08:55;;;;;;;32.70;8.27;;;;;;;42.87;32.60;100880.00;6130163;23;20480;-81
2023/04/04 22:11:24;;;;;;;25.30;9.50;;;;;;;42.97;32.40;100886.13;6129559;23;20933;-83
2023/04/04 22:13:51;;;;;;;28.10;11.67;;;;;;;42.91;32.15;100886.38;6101790;23;20449;-84
2023/04/04 22:16:19;;;;;;;26.53;9.40;;;;;;;42.97;32.04;100897.03;6101094;23;20448;-83
2023/04/04 22:18:47;;;;;;;25.97;8.80;;;;;;;42.92;31.88;100887.94;6100401;23;20418;-83
2023/04/04 22:21:14;;;;;;;23.63;8.23;;;;;;;42.87;31.17;100884.66;6100705;23;20390;-83
2023/04/04 22:23:41;;;;;;;32.40;10.70;;;;;;;42.88;30.97;100887.03;6101048;23;20473;-83
2023/04/04 22:26:09;;;;;;;21.60;7.93;;;;;;;42.88;31.21;100892.50;6100759;23;20398;-83
2023/04/04 22:28:37;;;;;;;21.23;8.23;;;;;;;42.85;31.19;100881.47;6100784;23;20500;-82
2023/04/04 22:31:05;;;;;;;31.77;10.30;;;;;;;42.89;30.94;100883.16;6100625;23;20434;-84
2023/04/04 22:33:32;;;;;;;23.33;8.60;;;;;;;42.85;31.61;100882.28;6100782;23;20783;-83
2023/04/04 22:36:00;;;;;;;27.83;10.70;;;;;;;42.85;31.57;100871.34;6100526;23;20883;-84
2023/04/04 22:38:27;;;;;;;30.00;9.00;;;;;;;42.95;31.46;100885.66;6100896;23;20413;-83
2023/04/04 22:40:54;;;;;;;40.47;12.10;;;;;;;42.82;31.58;100865.78;6100561;23;20470;-83
2023/04/04 22:43:20;;;;;;;38.33;13.80;;;;;;;42.72;31.83;100856.09;6100443;23;20397;-83
2023/04/04 22:45:47;;;;;;;37.20;13.33;;;;;;;42.90;32.22;100871.09;6100680;23;20437;-83
2023/04/04 22:48:14;;;;;;;43.57;12.43;;;;;;;42.93;31.89;100873.16;6100707;23;20389;-84
2023/04/04 22:50:40;;;;;;;31.60;13.20;;;;;;;42.91;32.17;100871.94;6100326;23;20426;-84
2023/04/04 22:53:11;;;;;;;40.00;10.97;;;;;;;42.91;32.10;100880.13;6127036;23;20414;-83
2023/04/04 22:55:39;;;;;;;38.47;11.20;;;;;;;42.98;32.20;100872.19;6100382;23;20445;-83
2023/04/04 22:58:05;;;;;;;31.17;11.97;;;;;;;42.85;32.08;100854.97;6100627;23;20468;-83
2023/04/04 23:00:32;;;;;;;44.47;11.87;;;;;;;42.84;32.00;100858.03;6100253;23;20386;-83
2023/04/04 23:02:59;;;;;;;33.77;12.33;;;;;;;42.86;31.96;100853.84;6100378;23;20469;-83
2023/04/04 23:05:25;;;;;;;32.87;14.17;;;;;;;42.89;32.01;100861.31;6100506;23;20389;-82
2023/04/04 23:07:51;;;;;;;40.07;15.57;;;;;;;42.83;32.35;100861.91;6126551;23;20378;-83
2023/04/04 23:10:18;;;;;;;33.10;12.93;;;;;;;42.87;32.46;100852.69;6100368;23;20433;-83
2023/04/04 23:12:44;;;;;;;37.77;13.97;;;;;;;42.83;32.80;100845.53;6100100;23;20815;-83
2023/04/04 23:15:12;;;;;;;39.73;15.43;;;;;;;42.81;32.78;100848.59;6100530;23;20937;-82
2023/04/04 23:17:38;;;;;;;35.33;13.40;;;;;;;42.93;32.48;100854.06;6100327;23;20613;-83
2023/04/04 23:20:11;;;;;;;44.93;13.50;;;;;;;42.89;32.38;100841.44;6100074;23;20386;-83
2023/04/04 23:22:37;;;;;;;29.93;10.60;;;;;;;42.91;32.49;100839.19;6100174;23;20448;-83
2023/04/04 23:25:05;;;;;;;33.90;11.63;;;;;;;42.83;32.07;100819.03;6100408;23;20839;-83
2023/04/04 23:27:32;;;;;;;39.43;17.50;;;;;;;42.92;31.66;100830.66;6100168;23;20469;-83
2023/04/04 23:30:02;;;;;;;32.20;9.87;;;;;;;42.84;31.78;100823.34;6100046;23;20461;-84
2023/04/04 23:32:31;;;;;;;26.67;10.17;;;;;;;42.90;31.33;100830.16;6100215;23;20382;-82
2023/04/04 23:34:57;;;;;;;34.40;10.87;;;;;;;42.91;31.94;100833.72;6100334;23;20387;-82
2023/04/04 23:37:23;;;;;;;30.30;12.73;;;;;;;42.86;32.17;100812.91;6100028;23;20731;-83
2023/04/04 23:39:49;;;;;;;30.83;11.80;;;;;;;42.78;32.17;100800.16;6100143;23;20385;-83
2023/04/04 23:42:15;;;;;;;34.73;11.33;;;;;;;42.87;32.22;100819.97;6099957;23;20900;-83
2023/04/04 23:44:41;;;;;;;31.37;10.20;;;;;;;42.90;32.06;100819.25;6100129;23;20473;-83
2023/04/04 23:47:08;;;;;;;36.77;10.50;;;;;;;42.81;32.14;100815.06;6126260;23;20409;-83
2023/04/04 23:49:34;;;;;;;22.70;9.10;;;;;;;42.84;31.31;100809.72;6099917;23;20398;-83
2023/04/04 23:51:59;;;;;;;29.67;11.20;;;;;;;42.86;31.29;100812.91;6100464;23;20429;-83
2023/04/04 23:54:25;;;;;;;33.27;10.17;;;;;;;42.89;31.23;100809.47;6126388;23;20367;-83
2023/04/04 23:56:51;;;;;;;31.10;9.40;;;;;;;42.75;31.25;100800.84;6100496;23;20414;-83
2023/04/04 23:59:17;;;;;;;30.97;8.53;;;;;;;42.84;31.45;100801.53;6099915;23;20406;-83
